sensor_id;sensor_type;location;lat;lon;timestamp;P1;durP1;ratioP1;P2;durP2;ratioP2
12816;SDS011;6473;51.552;6.716;2023-01-13T00:02:23;2.40;;;0.60;;
12816;SDS011;6473;51.552;6.716;2023-01-13T00:04:50;0.47;;;0.47;;
12816;SDS011;6473;51.552;6.716;2023-01-13T00:07:16;1.40;;;0.50;;
12816;SDS011;6473;51.552;6.716;2023-01-13T00:09:45;0.63;;;0.40;;
12816;SDS011;6473;51.552;6.716;2023-01-13T00:16:06;3.05;;;0.45;;
12816;SDS011;6473;51.552;6.716;2023-01-13T00:22:23;0.57;;;0.43;;
12816;SDS011;6473;51.552;6.716;2023-01-13T00:28:48;0.50;;;0.50;;
12816;SDS011;6473;51.552;6.716;2023-01-13T00:59:35;5.57;;;1.20;;
12816;SDS011;6473;51.552;6.716;2023-01-13T01:02:15;6.10;;;1.30;;
12816;SDS011;6473;51.552;6.716;2023-01-13T01:18:33;5.97;;;1.30;;
12816;SDS011;6473;51.552;6.716;2023-01-13T01:21:01;7.70;;;1.17;;
12816;SDS011;6473;51.552;6.716;2023-01-13T01:23:31;7.13;;;1.60;;
12816;SDS011;6473;51.552;6.716;2023-01-13T01:25:59;5.88;;;1.48;;
12816;SDS011;6473;51.552;6.716;2023-01-13T01:28:26;6.07;;;1.50;;
12816;SDS011;6473;51.552;6.716;2023-01-13T01:55:07;5.70;;;1.88;;
12816;SDS011;6473;51.552;6.716;2023-01-13T01:57:38;6.90;;;1.40;;
12816;SDS011;6473;51.552;6.716;2023-01-13T02:00:11;7.95;;;1.50;;
12816;SDS011;6473;51.552;6.716;2023-01-13T02:02:39;7.68;;;2.00;;
12816;SDS011;6473;51.552;6.716;2023-01-13T02:05:09;4.82;;;1.38;;
12816;SDS011;6473;51.552;6.716;2023-01-13T02:11:56;5.43;;;1.67;;
12816;SDS011;6473;51.552;6.716;2023-01-13T02:22:51;7.55;;;1.63;;
12816;SDS011;6473;51.552;6.716;2023-01-13T02:29:11;5.75;;;2.13;;
12816;SDS011;6473;51.552;6.716;2023-01-13T02:48:12;4.93;;;2.13;;
12816;SDS011;6473;51.552;6.716;2023-01-13T02:50:41;7.65;;;1.63;;
12816;SDS011;6473;51.552;6.716;2023-01-13T02:53:40;14.77;;;2.30;;
12816;SDS011;6473;51.552;6.716;2023-01-13T02:56:12;12.88;;;2.78;;
12816;SDS011;6473;51.552;6.716;2023-01-13T02:58:48;8.73;;;2.08;;
12816;SDS011;6473;51.552;6.716;2023-01-13T03:01:16;11.00;;;2.55;;
12816;SDS011;6473;51.552;6.716;2023-01-13T03:03:56;8.80;;;1.90;;
12816;SDS011;6473;51.552;6.716;2023-01-13T03:06:29;7.13;;;2.30;;
12816;SDS011;6473;51.552;6.716;2023-01-13T03:09:21;8.70;;;2.22;;
12816;SDS011;6473;51.552;6.716;2023-01-13T03:25:35;9.95;;;2.28;;
12816;SDS011;6473;51.552;6.716;2023-01-13T03:28:06;8.73;;;2.35;;
12816;SDS011;6473;51.552;6.716;2023-01-13T03:44:52;9.32;;;2.90;;
12816;SDS011;6473;51.552;6.716;2023-01-13T03:47:24;9.70;;;2.40;;
12816;SDS011;6473;51.552;6.716;2023-01-13T03:50:00;9.68;;;2.28;;
12816;SDS011;6473;51.552;6.716;2023-01-13T03:52:35;10.77;;;2.22;;
12816;SDS011;6473;51.552;6.716;2023-01-13T03:55:20;10.13;;;2.53;;
12816;SDS011;6473;51.552;6.716;2023-01-13T03:57:57;10.00;;;1.90;;
12816;SDS011;6473;51.552;6.716;2023-01-13T04:00:41;11.98;;;2.58;;
12816;SDS011;6473;51.552;6.716;2023-01-13T04:03:19;6.30;;;1.98;;
12816;SDS011;6473;51.552;6.716;2023-01-13T04:05:56;10.02;;;1.73;;
12816;SDS011;6473;51.552;6.716;2023-01-13T04:08:43;6.15;;;1.90;;
12816;SDS011;6473;51.552;6.716;2023-01-13T04:11:23;6.80;;;1.88;;
12816;SDS011;6473;51.552;6.716;2023-01-13T04:14:03;6.45;;;1.27;;
12816;SDS011;6473;51.552;6.716;2023-01-13T04:16:41;7.63;;;1.33;;
12816;SDS011;6473;51.552;6.716;2023-01-13T04:19:11;8.88;;;1.67;;
12816;SDS011;6473;51.552;6.716;2023-01-13T04:21:42;5.63;;;1.60;;
12816;SDS011;6473;51.552;6.716;2023-01-13T04:24:14;12.10;;;1.92;;
12816;SDS011;6473;51.552;6.716;2023-01-13T04:26:58;5.25;;;1.15;;
12816;SDS011;6473;51.552;6.716;2023-01-13T04:29:36;5.43;;;1.50;;
12816;SDS011;6473;51.552;6.716;2023-01-13T04:32:21;6.93;;;1.70;;
12816;SDS011;6473;51.552;6.716;2023-01-13T04:35:01;10.10;;;1.65;;
12816;SDS011;6473;51.552;6.716;2023-01-13T04:37:44;4.50;;;2.00;;
12816;SDS011;6473;51.552;6.716;2023-01-13T04:40:21;5.65;;;1.52;;
12816;SDS011;6473;51.552;6.716;2023-01-13T04:42:49;6.55;;;1.60;;
12816;SDS011;6473;51.552;6.716;2023-01-13T04:45:22;4.90;;;1.48;;
12816;SDS011;6473;51.552;6.716;2023-01-13T04:47:53;6.85;;;1.92;;
12816;SDS011;6473;51.552;6.716;2023-01-13T04:50:21;6.63;;;1.55;;
12816;SDS011;6473;51.552;6.716;2023-01-13T04:52:50;5.50;;;1.70;;
12816;SDS011;6473;51.552;6.716;2023-01-13T04:55:19;8.63;;;1.67;;
12816;SDS011;6473;51.552;6.716;2023-01-13T04:58:03;5.75;;;1.80;;
12816;SDS011;6473;51.552;6.716;2023-01-13T05:00:32;4.13;;;1.77;;
12816;SDS011;6473;51.552;6.716;2023-01-13T05:03:02;6.93;;;1.55;;
12816;SDS011;6473;51.552;6.716;2023-01-13T05:05:33;15.32;;;2.13;;
12816;SDS011;6473;51.552;6.716;2023-01-13T05:08:03;8.35;;;1.80;;
12816;SDS011;6473;51.552;6.716;2023-01-13T05:10:31;5.57;;;1.33;;
12816;SDS011;6473;51.552;6.716;2023-01-13T05:13:01;5.70;;;1.60;;
12816;SDS011;6473;51.552;6.716;2023-01-13T05:15:51;8.65;;;2.05;;
12816;SDS011;6473;51.552;6.716;2023-01-13T05:18:37;9.48;;;1.77;;
12816;SDS011;6473;51.552;6.716;2023-01-13T05:21:05;5.43;;;1.77;;
12816;SDS011;6473;51.552;6.716;2023-01-13T05:23:54;7.90;;;2.08;;
12816;SDS011;6473;51.552;6.716;2023-01-13T05:26:39;6.88;;;1.95;;
12816;SDS011;6473;51.552;6.716;2023-01-13T05:29:11;7.85;;;1.70;;
12816;SDS011;6473;51.552;6.716;2023-01-13T05:31:43;5.15;;;1.73;;
12816;SDS011;6473;51.552;6.716;2023-01-13T05:34:14;8.90;;;2.10;;
12816;SDS011;6473;51.552;6.716;2023-01-13T05:36:43;6.65;;;1.70;;
12816;SDS011;6473;51.552;6.716;2023-01-13T05:39:11;7.53;;;1.77;;
12816;SDS011;6473;51.552;6.716;2023-01-13T05:41:39;6.05;;;2.03;;
12816;SDS011;6473;51.552;6.716;2023-01-13T05:44:30;7.95;;;1.85;;
12816;SDS011;6473;51.552;6.716;2023-01-13T05:46:59;6.97;;;2.00;;
12816;SDS011;6473;51.552;6.716;2023-01-13T05:49:28;7.45;;;1.83;;
12816;SDS011;6473;51.552;6.716;2023-01-13T05:51:56;6.18;;;1.50;;
12816;SDS011;6473;51.552;6.716;2023-01-13T05:54:25;9.30;;;2.00;;
12816;SDS011;6473;51.552;6.716;2023-01-13T05:56:53;5.00;;;1.58;;
12816;SDS011;6473;51.552;6.716;2023-01-13T05:59:22;7.47;;;1.88;;
12816;SDS011;6473;51.552;6.716;2023-01-13T06:01:49;5.22;;;1.50;;
12816;SDS011;6473;51.552;6.716;2023-01-13T06:04:19;4.00;;;1.50;;
12816;SDS011;6473;51.552;6.716;2023-01-13T06:06:47;5.55;;;1.50;;
12816;SDS011;6473;51.552;6.716;2023-01-13T06:09:17;5.55;;;1.30;;
12816;SDS011;6473;51.552;6.716;2023-01-13T06:11:48;5.28;;;1.70;;
12816;SDS011;6473;51.552;6.716;2023-01-13T06:14:15;7.63;;;1.60;;
12816;SDS011;6473;51.552;6.716;2023-01-13T06:16:44;4.05;;;1.80;;
12816;SDS011;6473;51.552;6.716;2023-01-13T06:19:25;9.95;;;1.90;;
12816;SDS011;6473;51.552;6.716;2023-01-13T06:21:55;8.75;;;1.90;;
12816;SDS011;6473;51.552;6.716;2023-01-13T06:24:25;8.43;;;2.53;;
12816;SDS011;6473;51.552;6.716;2023-01-13T06:26:55;5.18;;;1.55;;
12816;SDS011;6473;51.552;6.716;2023-01-13T06:29:23;4.50;;;1.40;;
12816;SDS011;6473;51.552;6.716;2023-01-13T06:31:51;7.13;;;1.90;;
12816;SDS011;6473;51.552;6.716;2023-01-13T06:34:25;5.72;;;1.73;;
12816;SDS011;6473;51.552;6.716;2023-01-13T06:36:55;6.60;;;1.80;;
12816;SDS011;6473;51.552;6.716;2023-01-13T06:39:25;4.45;;;1.30;;
12816;SDS011;6473;51.552;6.716;2023-01-13T06:41:56;8.95;;;1.88;;
12816;SDS011;6473;51.552;6.716;2023-01-13T06:44:42;5.70;;;1.98;;
12816;SDS011;6473;51.552;6.716;2023-01-13T06:47:10;6.20;;;2.20;;
12816;SDS011;6473;51.552;6.716;2023-01-13T06:49:41;10.45;;;1.83;;
12816;SDS011;6473;51.552;6.716;2023-01-13T06:52:11;10.20;;;1.90;;
12816;SDS011;6473;51.552;6.716;2023-01-13T06:54:38;7.05;;;1.70;;
12816;SDS011;6473;51.552;6.716;2023-01-13T06:57:05;5.15;;;1.65;;
12816;SDS011;6473;51.552;6.716;2023-01-13T06:59:32;8.65;;;2.20;;
12816;SDS011;6473;51.552;6.716;2023-01-13T07:01:59;7.72;;;1.85;;
12816;SDS011;6473;51.552;6.716;2023-01-13T07:04:26;5.80;;;1.70;;
12816;SDS011;6473;51.552;6.716;2023-01-13T07:06:55;3.88;;;1.40;;
12816;SDS011;6473;51.552;6.716;2023-01-13T07:09:22;5.93;;;1.60;;
12816;SDS011;6473;51.552;6.716;2023-01-13T07:11:48;5.18;;;1.80;;
12816;SDS011;6473;51.552;6.716;2023-01-13T07:14:16;6.05;;;1.50;;
12816;SDS011;6473;51.552;6.716;2023-01-13T07:17:01;6.27;;;1.20;;
12816;SDS011;6473;51.552;6.716;2023-01-13T07:19:28;3.85;;;1.70;;
12816;SDS011;6473;51.552;6.716;2023-01-13T07:21:57;6.53;;;1.65;;
12816;SDS011;6473;51.552;6.716;2023-01-13T07:24:24;5.20;;;2.05;;
12816;SDS011;6473;51.552;6.716;2023-01-13T07:26:50;8.00;;;2.13;;
12816;SDS011;6473;51.552;6.716;2023-01-13T07:29:17;8.02;;;2.10;;
12816;SDS011;6473;51.552;6.716;2023-01-13T07:31:44;5.13;;;1.63;;
12816;SDS011;6473;51.552;6.716;2023-01-13T07:34:11;7.28;;;1.95;;
12816;SDS011;6473;51.552;6.716;2023-01-13T07:36:38;8.18;;;1.95;;
12816;SDS011;6473;51.552;6.716;2023-01-13T07:39:06;8.43;;;2.35;;
12816;SDS011;6473;51.552;6.716;2023-01-13T07:41:33;7.53;;;1.70;;
12816;SDS011;6473;51.552;6.716;2023-01-13T07:44:18;8.43;;;1.90;;
12816;SDS011;6473;51.552;6.716;2023-01-13T07:46:45;5.80;;;1.50;;
12816;SDS011;6473;51.552;6.716;2023-01-13T07:49:12;6.47;;;1.90;;
12816;SDS011;6473;51.552;6.716;2023-01-13T07:51:39;6.72;;;1.77;;
12816;SDS011;6473;51.552;6.716;2023-01-13T07:54:08;8.27;;;2.47;;
12816;SDS011;6473;51.552;6.716;2023-01-13T07:56:36;7.05;;;1.75;;
12816;SDS011;6473;51.552;6.716;2023-01-13T07:59:03;6.60;;;1.63;;
12816;SDS011;6473;51.552;6.716;2023-01-13T08:01:30;8.57;;;1.77;;
12816;SDS011;6473;51.552;6.716;2023-01-13T08:03:57;5.70;;;2.00;;
12816;SDS011;6473;51.552;6.716;2023-01-13T08:06:24;6.60;;;2.38;;
12816;SDS011;6473;51.552;6.716;2023-01-13T08:08:51;6.05;;;1.50;;
12816;SDS011;6473;51.552;6.716;2023-01-13T08:11:20;6.95;;;2.10;;
12816;SDS011;6473;51.552;6.716;2023-01-13T08:13:47;5.15;;;1.77;;
12816;SDS011;6473;51.552;6.716;2023-01-13T08:16:15;5.15;;;1.73;;
12816;SDS011;6473;51.552;6.716;2023-01-13T08:18:42;8.68;;;1.98;;
12816;SDS011;6473;51.552;6.716;2023-01-13T08:21:10;5.78;;;1.70;;
12816;SDS011;6473;51.552;6.716;2023-01-13T08:23:38;6.93;;;2.25;;
12816;SDS011;6473;51.552;6.716;2023-01-13T08:26:06;10.20;;;2.30;;
12816;SDS011;6473;51.552;6.716;2023-01-13T08:28:36;8.48;;;2.38;;
12816;SDS011;6473;51.552;6.716;2023-01-13T08:31:05;8.27;;;1.92;;
12816;SDS011;6473;51.552;6.716;2023-01-13T08:33:32;8.10;;;1.70;;
12816;SDS011;6473;51.552;6.716;2023-01-13T08:36:01;9.57;;;2.10;;
12816;SDS011;6473;51.552;6.716;2023-01-13T08:38:29;8.07;;;1.88;;
12816;SDS011;6473;51.552;6.716;2023-01-13T08:40:56;10.45;;;2.20;;
12816;SDS011;6473;51.552;6.716;2023-01-13T08:43:23;7.95;;;1.50;;
12816;SDS011;6473;51.552;6.716;2023-01-13T08:45:59;5.57;;;2.05;;
12816;SDS011;6473;51.552;6.716;2023-01-13T08:48:28;6.22;;;1.95;;
12816;SDS011;6473;51.552;6.716;2023-01-13T08:51:00;9.32;;;2.28;;
12816;SDS011;6473;51.552;6.716;2023-01-13T08:53:28;11.57;;;1.98;;
12816;SDS011;6473;51.552;6.716;2023-01-13T08:55:54;7.60;;;2.00;;
12816;SDS011;6473;51.552;6.716;2023-01-13T08:58:21;10.88;;;2.33;;
12816;SDS011;6473;51.552;6.716;2023-01-13T09:00:49;5.93;;;1.67;;
12816;SDS011;6473;51.552;6.716;2023-01-13T09:03:17;8.73;;;1.90;;
12816;SDS011;6473;51.552;6.716;2023-01-13T09:05:44;8.43;;;2.50;;
12816;SDS011;6473;51.552;6.716;2023-01-13T09:08:11;8.60;;;2.13;;
12816;SDS011;6473;51.552;6.716;2023-01-13T09:10:38;6.63;;;1.98;;
12816;SDS011;6473;51.552;6.716;2023-01-13T09:13:05;11.73;;;2.67;;
12816;SDS011;6473;51.552;6.716;2023-01-13T09:15:37;11.20;;;2.17;;
12816;SDS011;6473;51.552;6.716;2023-01-13T09:18:05;7.30;;;2.05;;
12816;SDS011;6473;51.552;6.716;2023-01-13T09:20:36;6.88;;;2.70;;
12816;SDS011;6473;51.552;6.716;2023-01-13T09:23:03;10.63;;;2.35;;
12816;SDS011;6473;51.552;6.716;2023-01-13T09:25:31;6.07;;;1.85;;
12816;SDS011;6473;51.552;6.716;2023-01-13T09:27:59;8.57;;;1.95;;
12816;SDS011;6473;51.552;6.716;2023-01-13T09:30:28;6.28;;;2.25;;
12816;SDS011;6473;51.552;6.716;2023-01-13T09:32:56;8.52;;;2.15;;
12816;SDS011;6473;51.552;6.716;2023-01-13T09:35:38;8.82;;;2.00;;
12816;SDS011;6473;51.552;6.716;2023-01-13T09:38:05;10.60;;;2.08;;
12816;SDS011;6473;51.552;6.716;2023-01-13T09:40:32;8.45;;;2.42;;
12816;SDS011;6473;51.552;6.716;2023-01-13T09:43:01;8.75;;;2.00;;
12816;SDS011;6473;51.552;6.716;2023-01-13T09:45:58;7.25;;;2.22;;
12816;SDS011;6473;51.552;6.716;2023-01-13T09:48:29;8.35;;;2.17;;
12816;SDS011;6473;51.552;6.716;2023-01-13T09:51:02;12.85;;;2.28;;
12816;SDS011;6473;51.552;6.716;2023-01-13T09:53:39;5.25;;;1.85;;
12816;SDS011;6473;51.552;6.716;2023-01-13T09:58:48;7.47;;;2.40;;
12816;SDS011;6473;51.552;6.716;2023-01-13T10:01:17;10.75;;;2.63;;
12816;SDS011;6473;51.552;6.716;2023-01-13T10:03:50;9.40;;;2.67;;
12816;SDS011;6473;51.552;6.716;2023-01-13T10:06:20;9.05;;;2.60;;
12816;SDS011;6473;51.552;6.716;2023-01-13T10:08:54;11.32;;;2.35;;
12816;SDS011;6473;51.552;6.716;2023-01-13T10:11:23;10.18;;;2.80;;
12816;SDS011;6473;51.552;6.716;2023-01-13T10:14:14;10.18;;;2.45;;
12816;SDS011;6473;51.552;6.716;2023-01-13T10:16:44;12.02;;;4.00;;
12816;SDS011;6473;51.552;6.716;2023-01-13T10:19:16;8.15;;;2.33;;
12816;SDS011;6473;51.552;6.716;2023-01-13T10:22:01;6.80;;;2.30;;
12816;SDS011;6473;51.552;6.716;2023-01-13T10:24:54;9.38;;;3.13;;
12816;SDS011;6473;51.552;6.716;2023-01-13T10:27:54;4.38;;;2.03;;
12816;SDS011;6473;51.552;6.716;2023-01-13T10:30:32;13.02;;;3.00;;
12816;SDS011;6473;51.552;6.716;2023-01-13T10:33:00;8.65;;;2.35;;
12816;SDS011;6473;51.552;6.716;2023-01-13T10:38:23;9.30;;;2.22;;
12816;SDS011;6473;51.552;6.716;2023-01-13T10:40:53;9.13;;;2.15;;
12816;SDS011;6473;51.552;6.716;2023-01-13T10:43:22;9.32;;;2.35;;
12816;SDS011;6473;51.552;6.716;2023-01-13T10:45:51;13.40;;;2.33;;
12816;SDS011;6473;51.552;6.716;2023-01-13T10:51:18;7.38;;;1.90;;
12816;SDS011;6473;51.552;6.716;2023-01-13T10:53:55;7.95;;;2.30;;
12816;SDS011;6473;51.552;6.716;2023-01-13T10:56:25;16.58;;;3.45;;
12816;SDS011;6473;51.552;6.716;2023-01-13T11:01:56;8.63;;;2.70;;
12816;SDS011;6473;51.552;6.716;2023-01-13T11:04:29;9.52;;;2.92;;
12816;SDS011;6473;51.552;6.716;2023-01-13T11:07:00;7.90;;;2.10;;
12816;SDS011;6473;51.552;6.716;2023-01-13T11:12:10;12.05;;;2.58;;
12816;SDS011;6473;51.552;6.716;2023-01-13T11:14:57;11.18;;;2.90;;
12816;SDS011;6473;51.552;6.716;2023-01-13T11:17:33;8.38;;;2.50;;
12816;SDS011;6473;51.552;6.716;2023-01-13T11:20:12;16.85;;;3.05;;
12816;SDS011;6473;51.552;6.716;2023-01-13T11:22:44;11.50;;;2.40;;
12816;SDS011;6473;51.552;6.716;2023-01-13T11:30:39;9.10;;;2.03;;
12816;SDS011;6473;51.552;6.716;2023-01-13T11:33:21;8.80;;;2.20;;
12816;SDS011;6473;51.552;6.716;2023-01-13T11:35:59;13.38;;;2.40;;
12816;SDS011;6473;51.552;6.716;2023-01-13T11:38:36;8.75;;;2.58;;
12816;SDS011;6473;51.552;6.716;2023-01-13T11:41:13;8.43;;;2.45;;
12816;SDS011;6473;51.552;6.716;2023-01-13T11:43:54;9.55;;;2.60;;
12816;SDS011;6473;51.552;6.716;2023-01-13T11:46:26;9.52;;;2.65;;
12816;SDS011;6473;51.552;6.716;2023-01-13T11:48:53;10.05;;;2.00;;
12816;SDS011;6473;51.552;6.716;2023-01-13T11:51:24;8.02;;;2.08;;
12816;SDS011;6473;51.552;6.716;2023-01-13T11:54:09;10.40;;;2.30;;
12816;SDS011;6473;51.552;6.716;2023-01-13T12:03:17;8.95;;;3.05;;
12816;SDS011;6473;51.552;6.716;2023-01-13T12:05:55;9.95;;;2.58;;
12816;SDS011;6473;51.552;6.716;2023-01-13T12:08:35;5.85;;;2.10;;
12816;SDS011;6473;51.552;6.716;2023-01-13T12:11:18;11.20;;;2.88;;
12816;SDS011;6473;51.552;6.716;2023-01-13T12:14:00;9.27;;;2.63;;
12816;SDS011;6473;51.552;6.716;2023-01-13T12:16:40;8.57;;;2.17;;
12816;SDS011;6473;51.552;6.716;2023-01-13T12:19:20;10.52;;;2.78;;
12816;SDS011;6473;51.552;6.716;2023-01-13T12:21:55;11.18;;;3.00;;
12816;SDS011;6473;51.552;6.716;2023-01-13T12:24:29;7.80;;;2.45;;
12816;SDS011;6473;51.552;6.716;2023-01-13T12:27:00;8.52;;;2.40;;
12816;SDS011;6473;51.552;6.716;2023-01-13T12:29:31;10.85;;;2.95;;
12816;SDS011;6473;51.552;6.716;2023-01-13T12:32:01;13.10;;;2.58;;
12816;SDS011;6473;51.552;6.716;2023-01-13T12:34:34;6.43;;;2.53;;
12816;SDS011;6473;51.552;6.716;2023-01-13T12:37:13;9.20;;;1.98;;
12816;SDS011;6473;51.552;6.716;2023-01-13T12:39:49;11.02;;;2.45;;
12816;SDS011;6473;51.552;6.716;2023-01-13T12:42:27;9.02;;;2.83;;
12816;SDS011;6473;51.552;6.716;2023-01-13T12:45:21;4.55;;;2.42;;
12816;SDS011;6473;51.552;6.716;2023-01-13T12:47:51;8.75;;;1.80;;
12816;SDS011;6473;51.552;6.716;2023-01-13T13:02:24;8.55;;;2.53;;
12816;SDS011;6473;51.552;6.716;2023-01-13T13:04:55;12.50;;;2.80;;
12816;SDS011;6473;51.552;6.716;2023-01-13T13:07:30;6.63;;;2.40;;
12816;SDS011;6473;51.552;6.716;2023-01-13T13:10:04;9.40;;;2.53;;
12816;SDS011;6473;51.552;6.716;2023-01-13T13:12:57;10.63;;;2.95;;
12816;SDS011;6473;51.552;6.716;2023-01-13T13:15:42;11.23;;;3.08;;
12816;SDS011;6473;51.552;6.716;2023-01-13T13:18:24;8.25;;;2.55;;
12816;SDS011;6473;51.552;6.716;2023-01-13T13:20:59;10.63;;;2.67;;
12816;SDS011;6473;51.552;6.716;2023-01-13T13:23:37;9.32;;;2.63;;
12816;SDS011;6473;51.552;6.716;2023-01-13T13:26:26;12.18;;;2.47;;
12816;SDS011;6473;51.552;6.716;2023-01-13T13:29:00;9.20;;;3.22;;
12816;SDS011;6473;51.552;6.716;2023-01-13T13:31:51;8.20;;;2.33;;
12816;SDS011;6473;51.552;6.716;2023-01-13T13:34:37;12.10;;;2.83;;
12816;SDS011;6473;51.552;6.716;2023-01-13T13:37:20;12.98;;;2.97;;
12816;SDS011;6473;51.552;6.716;2023-01-13T13:40:21;10.25;;;2.47;;
12816;SDS011;6473;51.552;6.716;2023-01-13T13:43:07;16.15;;;3.83;;
12816;SDS011;6473;51.552;6.716;2023-01-13T13:45:56;10.55;;;2.92;;
12816;SDS011;6473;51.552;6.716;2023-01-13T13:48:48;16.77;;;3.40;;
12816;SDS011;6473;51.552;6.716;2023-01-13T13:51:20;10.15;;;2.63;;
12816;SDS011;6473;51.552;6.716;2023-01-13T13:53:52;7.88;;;2.40;;
12816;SDS011;6473;51.552;6.716;2023-01-13T13:56:25;7.20;;;2.78;;
12816;SDS011;6473;51.552;6.716;2023-01-13T13:58:54;8.80;;;2.53;;
12816;SDS011;6473;51.552;6.716;2023-01-13T14:01:21;8.57;;;2.63;;
12816;SDS011;6473;51.552;6.716;2023-01-13T14:06:20;8.65;;;2.17;;
12816;SDS011;6473;51.552;6.716;2023-01-13T14:08:48;8.25;;;2.72;;
12816;SDS011;6473;51.552;6.716;2023-01-13T14:11:22;12.32;;;2.30;;
12816;SDS011;6473;51.552;6.716;2023-01-13T14:14:01;8.73;;;1.98;;
12816;SDS011;6473;51.552;6.716;2023-01-13T14:16:30;8.90;;;3.55;;
12816;SDS011;6473;51.552;6.716;2023-01-13T14:18:58;7.85;;;2.60;;
12816;SDS011;6473;51.552;6.716;2023-01-13T14:21:26;12.30;;;2.97;;
12816;SDS011;6473;51.552;6.716;2023-01-13T14:50:47;7.38;;;2.45;;
12816;SDS011;6473;51.552;6.716;2023-01-13T14:53:24;7.97;;;2.10;;
12816;SDS011;6473;51.552;6.716;2023-01-13T14:55:54;4.82;;;1.70;;
12816;SDS011;6473;51.552;6.716;2023-01-13T14:58:24;8.20;;;2.80;;
12816;SDS011;6473;51.552;6.716;2023-01-13T15:03:53;13.52;;;2.80;;
12816;SDS011;6473;51.552;6.716;2023-01-13T15:06:22;6.28;;;2.15;;
12816;SDS011;6473;51.552;6.716;2023-01-13T15:08:51;5.57;;;2.10;;
12816;SDS011;6473;51.552;6.716;2023-01-13T15:11:22;9.50;;;2.38;;
12816;SDS011;6473;51.552;6.716;2023-01-13T15:13:54;9.20;;;2.70;;
12816;SDS011;6473;51.552;6.716;2023-01-13T15:16:25;7.25;;;2.25;;
12816;SDS011;6473;51.552;6.716;2023-01-13T15:18:54;10.10;;;2.78;;
12816;SDS011;6473;51.552;6.716;2023-01-13T15:21:22;8.65;;;2.53;;
12816;SDS011;6473;51.552;6.716;2023-01-13T15:23:49;8.02;;;2.67;;
12816;SDS011;6473;51.552;6.716;2023-01-13T15:26:18;8.93;;;2.40;;
12816;SDS011;6473;51.552;6.716;2023-01-13T15:28:46;5.13;;;1.67;;
12816;SDS011;6473;51.552;6.716;2023-01-13T15:31:15;5.50;;;1.90;;
12816;SDS011;6473;51.552;6.716;2023-01-13T15:33:42;5.75;;;2.05;;
12816;SDS011;6473;51.552;6.716;2023-01-13T15:36:16;8.93;;;2.33;;
12816;SDS011;6473;51.552;6.716;2023-01-13T15:38:48;10.60;;;2.90;;
12816;SDS011;6473;51.552;6.716;2023-01-13T15:41:15;6.03;;;1.80;;
12816;SDS011;6473;51.552;6.716;2023-01-13T15:44:02;4.30;;;1.52;;
12816;SDS011;6473;51.552;6.716;2023-01-13T15:46:46;6.18;;;1.90;;
12816;SDS011;6473;51.552;6.716;2023-01-13T15:49:16;6.05;;;1.65;;
12816;SDS011;6473;51.552;6.716;2023-01-13T15:51:50;9.25;;;1.90;;
12816;SDS011;6473;51.552;6.716;2023-01-13T15:54:18;7.95;;;1.83;;
12816;SDS011;6473;51.552;6.716;2023-01-13T15:56:48;6.00;;;2.28;;
12816;SDS011;6473;51.552;6.716;2023-01-13T15:59:16;7.00;;;2.05;;
12816;SDS011;6473;51.552;6.716;2023-01-13T16:01:46;4.75;;;1.67;;
12816;SDS011;6473;51.552;6.716;2023-01-13T16:04:13;8.13;;;1.75;;
12816;SDS011;6473;51.552;6.716;2023-01-13T16:06:40;8.95;;;1.92;;
12816;SDS011;6473;51.552;6.716;2023-01-13T16:09:09;6.28;;;1.80;;
12816;SDS011;6473;51.552;6.716;2023-01-13T16:11:39;7.45;;;2.15;;
12816;SDS011;6473;51.552;6.716;2023-01-13T16:14:06;5.68;;;1.90;;
12816;SDS011;6473;51.552;6.716;2023-01-13T16:16:33;9.80;;;2.08;;
12816;SDS011;6473;51.552;6.716;2023-01-13T16:19:01;7.95;;;1.73;;
12816;SDS011;6473;51.552;6.716;2023-01-13T16:21:28;12.95;;;2.40;;
12816;SDS011;6473;51.552;6.716;2023-01-13T16:23:56;10.07;;;2.45;;
12816;SDS011;6473;51.552;6.716;2023-01-13T16:26:23;8.32;;;1.98;;
12816;SDS011;6473;51.552;6.716;2023-01-13T16:28:53;8.52;;;2.10;;
12816;SDS011;6473;51.552;6.716;2023-01-13T16:31:23;4.28;;;1.83;;
12816;SDS011;6473;51.552;6.716;2023-01-13T16:33:53;11.80;;;2.55;;
12816;SDS011;6473;51.552;6.716;2023-01-13T16:36:20;9.10;;;2.40;;
12816;SDS011;6473;51.552;6.716;2023-01-13T16:38:48;7.25;;;2.17;;
12816;SDS011;6473;51.552;6.716;2023-01-13T16:41:16;7.05;;;2.03;;
12816;SDS011;6473;51.552;6.716;2023-01-13T16:43:43;7.68;;;2.05;;
12816;SDS011;6473;51.552;6.716;2023-01-13T16:46:21;7.13;;;2.15;;
12816;SDS011;6473;51.552;6.716;2023-01-13T16:48:50;6.50;;;2.55;;
12816;SDS011;6473;51.552;6.716;2023-01-13T16:51:18;10.25;;;2.05;;
12816;SDS011;6473;51.552;6.716;2023-01-13T16:53:46;7.35;;;2.35;;
12816;SDS011;6473;51.552;6.716;2023-01-13T16:56:16;7.63;;;2.35;;
12816;SDS011;6473;51.552;6.716;2023-01-13T16:58:47;9.55;;;1.90;;
12816;SDS011;6473;51.552;6.716;2023-01-13T17:01:17;10.80;;;2.17;;
12816;SDS011;6473;51.552;6.716;2023-01-13T17:03:46;7.32;;;2.00;;
12816;SDS011;6473;51.552;6.716;2023-01-13T17:06:16;7.05;;;1.83;;
12816;SDS011;6473;51.552;6.716;2023-01-13T17:08:46;4.97;;;1.80;;
12816;SDS011;6473;51.552;6.716;2023-01-13T17:11:13;4.50;;;1.88;;
12816;SDS011;6473;51.552;6.716;2023-01-13T17:13:40;5.70;;;1.55;;
12816;SDS011;6473;51.552;6.716;2023-01-13T17:16:12;9.48;;;2.20;;
12816;SDS011;6473;51.552;6.716;2023-01-13T17:18:42;7.00;;;2.33;;
12816;SDS011;6473;51.552;6.716;2023-01-13T17:21:10;8.52;;;2.10;;
12816;SDS011;6473;51.552;6.716;2023-01-13T17:23:38;8.48;;;1.98;;
12816;SDS011;6473;51.552;6.716;2023-01-13T17:26:05;6.32;;;2.08;;
12816;SDS011;6473;51.552;6.716;2023-01-13T17:28:32;9.95;;;2.28;;
12816;SDS011;6473;51.552;6.716;2023-01-13T17:30:59;8.70;;;1.92;;
12816;SDS011;6473;51.552;6.716;2023-01-13T17:33:26;6.65;;;1.90;;
12816;SDS011;6473;51.552;6.716;2023-01-13T17:36:01;7.53;;;2.08;;
12816;SDS011;6473;51.552;6.716;2023-01-13T17:38:30;10.38;;;2.40;;
12816;SDS011;6473;51.552;6.716;2023-01-13T17:41:00;6.25;;;2.13;;
12816;SDS011;6473;51.552;6.716;2023-01-13T17:43:29;7.72;;;2.08;;
12816;SDS011;6473;51.552;6.716;2023-01-13T17:45:56;9.75;;;2.10;;
12816;SDS011;6473;51.552;6.716;2023-01-13T17:48:23;3.80;;;1.50;;
12816;SDS011;6473;51.552;6.716;2023-01-13T17:50:51;8.13;;;2.08;;
12816;SDS011;6473;51.552;6.716;2023-01-13T17:53:18;7.35;;;2.00;;
12816;SDS011;6473;51.552;6.716;2023-01-13T17:55:51;9.52;;;1.80;;
12816;SDS011;6473;51.552;6.716;2023-01-13T17:58:18;6.47;;;1.90;;
12816;SDS011;6473;51.552;6.716;2023-01-13T18:00:46;6.22;;;2.22;;
12816;SDS011;6473;51.552;6.716;2023-01-13T18:03:19;5.35;;;1.60;;
12816;SDS011;6473;51.552;6.716;2023-01-13T18:05:46;9.55;;;2.50;;
12816;SDS011;6473;51.552;6.716;2023-01-13T18:08:13;6.13;;;1.80;;
12816;SDS011;6473;51.552;6.716;2023-01-13T18:10:41;5.50;;;1.85;;
12816;SDS011;6473;51.552;6.716;2023-01-13T18:13:09;6.57;;;1.77;;
12816;SDS011;6473;51.552;6.716;2023-01-13T18:15:36;6.20;;;2.00;;
12816;SDS011;6473;51.552;6.716;2023-01-13T18:18:06;6.38;;;1.73;;
12816;SDS011;6473;51.552;6.716;2023-01-13T18:20:33;7.15;;;2.20;;
12816;SDS011;6473;51.552;6.716;2023-01-13T18:23:20;6.40;;;2.33;;
12816;SDS011;6473;51.552;6.716;2023-01-13T18:26:13;7.65;;;2.33;;
12816;SDS011;6473;51.552;6.716;2023-01-13T18:29:00;7.55;;;2.08;;
12816;SDS011;6473;51.552;6.716;2023-01-13T18:31:27;6.10;;;2.10;;
12816;SDS011;6473;51.552;6.716;2023-01-13T18:33:54;7.95;;;2.20;;
12816;SDS011;6473;51.552;6.716;2023-01-13T18:36:23;10.60;;;2.05;;
12816;SDS011;6473;51.552;6.716;2023-01-13T18:38:56;9.57;;;2.78;;
12816;SDS011;6473;51.552;6.716;2023-01-13T18:41:23;10.35;;;2.70;;
12816;SDS011;6473;51.552;6.716;2023-01-13T18:44:10;9.23;;;2.22;;
12816;SDS011;6473;51.552;6.716;2023-01-13T18:46:37;9.20;;;2.42;;
12816;SDS011;6473;51.552;6.716;2023-01-13T18:49:04;7.50;;;2.25;;
12816;SDS011;6473;51.552;6.716;2023-01-13T18:51:31;8.00;;;1.95;;
12816;SDS011;6473;51.552;6.716;2023-01-13T18:53:58;6.25;;;2.40;;
12816;SDS011;6473;51.552;6.716;2023-01-13T18:56:26;11.05;;;2.55;;
12816;SDS011;6473;51.552;6.716;2023-01-13T18:59:01;8.13;;;2.25;;